sensor_id;sensor_type;location;lat;lon;timestamp;temperature;humidity
31765;DHT22;18338;53.240;8.798;2023-03-01T00:00:49;-2.70;99.90
31765;DHT22;18338;53.240;8.798;2023-03-01T00:03:16;-2.70;99.90
31765;DHT22;18338;53.240;8.798;2023-03-01T00:05:46;-2.80;99.90
31765;DHT22;18338;53.240;8.798;2023-03-01T00:08:13;-2.80;99.90
31765;DHT22;18338;53.240;8.798;2023-03-01T00:10:40;-2.80;99.90
31765;DHT22;18338;53.240;8.798;2023-03-01T00:13:06;-2.80;99.90
31765;DHT22;18338;53.240;8.798;2023-03-01T00:15:33;-2.80;99.90
31765;DHT22;18338;53.240;8.798;2023-03-01T00:18:01;-2.80;99.90
31765;DHT22;18338;53.240;8.798;2023-03-01T00:20:28;-2.80;99.90
31765;DHT22;18338;53.240;8.798;2023-03-01T00:22:55;-2.80;99.90
31765;DHT22;18338;53.240;8.798;2023-03-01T00:25:21;-2.70;99.90
31765;DHT22;18338;53.240;8.798;2023-03-01T00:27:48;-2.60;99.90
31765;DHT22;18338;53.240;8.798;2023-03-01T00:30:15;-2.60;99.90
31765;DHT22;18338;53.240;8.798;2023-03-01T00:32:42;-2.60;99.90
31765;DHT22;18338;53.240;8.798;2023-03-01T00:35:09;-2.70;99.90
31765;DHT22;18338;53.240;8.798;2023-03-01T00:37:35;-2.60;99.90
31765;DHT22;18338;53.240;8.798;2023-03-01T00:40:02;-2.60;99.90
31765;DHT22;18338;53.240;8.798;2023-03-01T00:42:32;-2.60;99.90
31765;DHT22;18338;53.240;8.798;2023-03-01T00:44:59;-2.60;99.90
31765;DHT22;18338;53.240;8.798;2023-03-01T00:47:28;-2.50;99.90
31765;DHT22;18338;53.240;8.798;2023-03-01T00:49:55;-2.50;99.90
31765;DHT22;18338;53.240;8.798;2023-03-01T00:52:22;-2.40;99.90
31765;DHT22;18338;53.240;8.798;2023-03-01T00:54:52;-2.40;99.90
31765;DHT22;18338;53.240;8.798;2023-03-01T00:57:18;-2.40;99.90
31765;DHT22;18338;53.240;8.798;2023-03-01T00:59:45;-2.30;99.90
31765;DHT22;18338;53.240;8.798;2023-03-01T01:02:12;-2.40;99.90
31765;DHT22;18338;53.240;8.798;2023-03-01T01:04:38;-2.40;99.90
31765;DHT22;18338;53.240;8.798;2023-03-01T01:07:05;-2.40;99.90
31765;DHT22;18338;53.240;8.798;2023-03-01T01:09:32;-2.30;99.90
31765;DHT22;18338;53.240;8.798;2023-03-01T01:11:59;-2.30;99.90
31765;DHT22;18338;53.240;8.798;2023-03-01T01:14:26;-2.30;99.90
31765;DHT22;18338;53.240;8.798;2023-03-01T01:16:53;-2.20;99.90
31765;DHT22;18338;53.240;8.798;2023-03-01T01:19:20;-2.10;99.90
31765;DHT22;18338;53.240;8.798;2023-03-01T01:21:48;-2.00;99.90
31765;DHT22;18338;53.240;8.798;2023-03-01T01:24:15;-2.10;99.90
31765;DHT22;18338;53.240;8.798;2023-03-01T01:26:42;-2.30;99.90
31765;DHT22;18338;53.240;8.798;2023-03-01T01:29:09;-2.40;99.90
31765;DHT22;18338;53.240;8.798;2023-03-01T01:31:37;-2.40;99.90
31765;DHT22;18338;53.240;8.798;2023-03-01T01:34:06;-2.40;99.90
31765;DHT22;18338;53.240;8.798;2023-03-01T01:36:34;-2.50;99.90
31765;DHT22;18338;53.240;8.798;2023-03-01T01:39:01;-2.60;99.90
31765;DHT22;18338;53.240;8.798;2023-03-01T01:41:28;-2.70;99.90
31765;DHT22;18338;53.240;8.798;2023-03-01T01:44:21;-2.70;99.90
31765;DHT22;18338;53.240;8.798;2023-03-01T01:47:10;-2.80;99.90
31765;DHT22;18338;53.240;8.798;2023-03-01T01:55:06;-2.60;99.90
31765;DHT22;18338;53.240;8.798;2023-03-01T01:57:40;-2.70;99.90
31765;DHT22;18338;53.240;8.798;2023-03-01T02:00:11;-2.70;99.90
31765;DHT22;18338;53.240;8.798;2023-03-01T02:02:39;-2.70;99.90
31765;DHT22;18338;53.240;8.798;2023-03-01T02:05:18;-2.60;99.90
31765;DHT22;18338;53.240;8.798;2023-03-01T02:07:46;-2.40;99.90
31765;DHT22;18338;53.240;8.798;2023-03-01T02:10:14;-2.30;99.90
31765;DHT22;18338;53.240;8.798;2023-03-01T02:12:41;-2.30;99.90
31765;DHT22;18338;53.240;8.798;2023-03-01T02:15:08;-2.40;99.90
31765;DHT22;18338;53.240;8.798;2023-03-01T02:17:35;-2.40;99.90
31765;DHT22;18338;53.240;8.798;2023-03-01T02:23:07;-2.40;99.90
31765;DHT22;18338;53.240;8.798;2023-03-01T02:25:47;-2.40;99.90
31765;DHT22;18338;53.240;8.798;2023-03-01T02:28:22;-2.50;99.90
31765;DHT22;18338;53.240;8.798;2023-03-01T02:30:50;-2.50;99.90
31765;DHT22;18338;53.240;8.798;2023-03-01T02:33:55;-2.60;99.90
31765;DHT22;18338;53.240;8.798;2023-03-01T02:36:27;-2.60;99.90
31765;DHT22;18338;53.240;8.798;2023-03-01T02:39:01;-2.50;99.90
31765;DHT22;18338;53.240;8.798;2023-03-01T02:41:31;-2.50;99.90
31765;DHT22;18338;53.240;8.798;2023-03-01T02:43:58;-2.50;99.90
31765;DHT22;18338;53.240;8.798;2023-03-01T02:46:25;-2.60;99.90
31765;DHT22;18338;53.240;8.798;2023-03-01T02:48:55;-2.70;99.90
31765;DHT22;18338;53.240;8.798;2023-03-01T02:54:12;-2.70;99.90
31765;DHT22;18338;53.240;8.798;2023-03-01T02:56:41;-2.60;99.90
31765;DHT22;18338;53.240;8.798;2023-03-01T02:59:08;-2.60;99.90
31765;DHT22;18338;53.240;8.798;2023-03-01T03:01:35;-2.60;99.90
31765;DHT22;18338;53.240;8.798;2023-03-01T03:04:11;-2.60;99.90
31765;DHT22;18338;53.240;8.798;2023-03-01T03:06:38;-2.50;99.90
31765;DHT22;18338;53.240;8.798;2023-03-01T03:09:05;-2.50;99.90
31765;DHT22;18338;53.240;8.798;2023-03-01T03:11:32;-2.50;99.90
31765;DHT22;18338;53.240;8.798;2023-03-01T03:13:59;-2.50;99.90
31765;DHT22;18338;53.240;8.798;2023-03-01T03:16:26;-2.50;99.90
31765;DHT22;18338;53.240;8.798;2023-03-01T03:18:52;-2.50;99.90
31765;DHT22;18338;53.240;8.798;2023-03-01T03:21:20;-2.50;99.90
31765;DHT22;18338;53.240;8.798;2023-03-01T03:23:47;-2.40;99.90
31765;DHT22;18338;53.240;8.798;2023-03-01T03:26:13;-2.50;99.90
31765;DHT22;18338;53.240;8.798;2023-03-01T03:28:41;-2.60;99.90
31765;DHT22;18338;53.240;8.798;2023-03-01T03:31:08;-2.70;99.90
31765;DHT22;18338;53.240;8.798;2023-03-01T03:33:35;-2.80;99.90
31765;DHT22;18338;53.240;8.798;2023-03-01T03:36:03;-2.90;99.90
31765;DHT22;18338;53.240;8.798;2023-03-01T03:38:29;-2.90;99.90
31765;DHT22;18338;53.240;8.798;2023-03-01T03:41:02;-2.90;99.90
31765;DHT22;18338;53.240;8.798;2023-03-01T03:43:32;-2.90;99.90
31765;DHT22;18338;53.240;8.798;2023-03-01T03:45:59;-2.80;99.90
31765;DHT22;18338;53.240;8.798;2023-03-01T03:48:26;-2.70;99.90
31765;DHT22;18338;53.240;8.798;2023-03-01T03:50:54;-2.60;99.90
31765;DHT22;18338;53.240;8.798;2023-03-01T03:53:23;-2.60;99.90
31765;DHT22;18338;53.240;8.798;2023-03-01T03:55:51;-2.50;99.90
31765;DHT22;18338;53.240;8.798;2023-03-01T03:58:20;-2.60;99.90
31765;DHT22;18338;53.240;8.798;2023-03-01T04:00:49;-2.60;99.90
31765;DHT22;18338;53.240;8.798;2023-03-01T04:03:17;-2.70;99.90
31765;DHT22;18338;53.240;8.798;2023-03-01T04:05:45;-2.80;99.90
31765;DHT22;18338;53.240;8.798;2023-03-01T04:08:12;-3.00;99.90
31765;DHT22;18338;53.240;8.798;2023-03-01T04:10:42;-2.90;99.90
31765;DHT22;18338;53.240;8.798;2023-03-01T04:13:12;-3.00;99.90
31765;DHT22;18338;53.240;8.798;2023-03-01T04:15:39;-2.80;99.90
31765;DHT22;18338;53.240;8.798;2023-03-01T04:18:08;-2.80;99.90
31765;DHT22;18338;53.240;8.798;2023-03-01T04:20:35;-2.90;99.90
31765;DHT22;18338;53.240;8.798;2023-03-01T04:25:51;-3.10;99.90
31765;DHT22;18338;53.240;8.798;2023-03-01T04:30:53;-3.40;99.90
31765;DHT22;18338;53.240;8.798;2023-03-01T04:33:21;-3.40;99.90
31765;DHT22;18338;53.240;8.798;2023-03-01T04:35:48;-3.60;99.90
31765;DHT22;18338;53.240;8.798;2023-03-01T04:38:19;-3.60;99.90
31765;DHT22;18338;53.240;8.798;2023-03-01T04:40:45;-3.60;99.90
31765;DHT22;18338;53.240;8.798;2023-03-01T04:43:13;-3.50;99.90
31765;DHT22;18338;53.240;8.798;2023-03-01T04:45:41;-3.60;99.90
31765;DHT22;18338;53.240;8.798;2023-03-01T04:48:08;-3.60;99.90
31765;DHT22;18338;53.240;8.798;2023-03-01T04:50:35;-3.50;99.90
31765;DHT22;18338;53.240;8.798;2023-03-01T04:53:02;-3.60;99.90
31765;DHT22;18338;53.240;8.798;2023-03-01T04:55:29;-3.50;99.90
31765;DHT22;18338;53.240;8.798;2023-03-01T04:57:56;-3.60;99.90
31765;DHT22;18338;53.240;8.798;2023-03-01T05:00:22;-3.60;99.90
31765;DHT22;18338;53.240;8.798;2023-03-01T05:02:52;-3.70;99.90
31765;DHT22;18338;53.240;8.798;2023-03-01T05:05:33;-3.80;99.90
31765;DHT22;18338;53.240;8.798;2023-03-01T05:08:03;-3.80;99.90
31765;DHT22;18338;53.240;8.798;2023-03-01T05:10:32;-3.90;99.90
31765;DHT22;18338;53.240;8.798;2023-03-01T05:12:59;-3.90;99.90
31765;DHT22;18338;53.240;8.798;2023-03-01T05:15:28;-3.90;99.90
31765;DHT22;18338;53.240;8.798;2023-03-01T05:17:57;-3.90;99.90
31765;DHT22;18338;53.240;8.798;2023-03-01T05:20:27;-4.00;99.90
31765;DHT22;18338;53.240;8.798;2023-03-01T05:22:57;-4.00;99.90
31765;DHT22;18338;53.240;8.798;2023-03-01T05:25:25;-4.00;99.90
31765;DHT22;18338;53.240;8.798;2023-03-01T05:27:52;-4.00;99.90
31765;DHT22;18338;53.240;8.798;2023-03-01T05:30:19;-4.00;99.90
31765;DHT22;18338;53.240;8.798;2023-03-01T05:32:48;-4.10;99.90
31765;DHT22;18338;53.240;8.798;2023-03-01T05:35:17;-4.10;99.90
31765;DHT22;18338;53.240;8.798;2023-03-01T05:37:46;-4.10;99.90
31765;DHT22;18338;53.240;8.798;2023-03-01T05:40:16;-4.10;99.90
31765;DHT22;18338;53.240;8.798;2023-03-01T05:45:11;-4.10;99.90
31765;DHT22;18338;53.240;8.798;2023-03-01T05:47:43;-4.20;99.90
31765;DHT22;18338;53.240;8.798;2023-03-01T05:50:16;-4.10;99.90
31765;DHT22;18338;53.240;8.798;2023-03-01T05:52:47;-4.00;99.90
31765;DHT22;18338;53.240;8.798;2023-03-01T05:55:16;-3.90;99.90
31765;DHT22;18338;53.240;8.798;2023-03-01T05:57:44;-3.90;99.90
31765;DHT22;18338;53.240;8.798;2023-03-01T06:00:12;-3.90;99.90
31765;DHT22;18338;53.240;8.798;2023-03-01T06:02:42;-4.00;99.90
31765;DHT22;18338;53.240;8.798;2023-03-01T06:05:12;-4.10;99.90
31765;DHT22;18338;53.240;8.798;2023-03-01T06:07:40;-4.10;99.90
31765;DHT22;18338;53.240;8.798;2023-03-01T06:10:08;-4.20;99.90
31765;DHT22;18338;53.240;8.798;2023-03-01T06:12:36;-4.30;99.90
31765;DHT22;18338;53.240;8.798;2023-03-01T06:15:04;-4.30;99.90
31765;DHT22;18338;53.240;8.798;2023-03-01T06:17:38;-4.30;99.90
31765;DHT22;18338;53.240;8.798;2023-03-01T06:20:34;-4.30;99.90
31765;DHT22;18338;53.240;8.798;2023-03-01T06:23:00;-4.30;99.90
31765;DHT22;18338;53.240;8.798;2023-03-01T06:25:27;-4.20;99.90
31765;DHT22;18338;53.240;8.798;2023-03-01T06:27:55;-4.20;99.90
31765;DHT22;18338;53.240;8.798;2023-03-01T06:30:25;-4.10;99.90
31765;DHT22;18338;53.240;8.798;2023-03-01T06:32:52;-4.10;99.90
31765;DHT22;18338;53.240;8.798;2023-03-01T06:35:19;-4.00;99.90
31765;DHT22;18338;53.240;8.798;2023-03-01T06:37:47;-4.00;99.90
31765;DHT22;18338;53.240;8.798;2023-03-01T06:40:16;-3.90;99.90
31765;DHT22;18338;53.240;8.798;2023-03-01T06:42:48;-3.70;99.90
31765;DHT22;18338;53.240;8.798;2023-03-01T06:45:17;-3.60;99.90
31765;DHT22;18338;53.240;8.798;2023-03-01T06:47:48;-3.40;99.90
31765;DHT22;18338;53.240;8.798;2023-03-01T06:50:16;-3.10;99.90
31765;DHT22;18338;53.240;8.798;2023-03-01T06:52:44;-2.80;99.90
31765;DHT22;18338;53.240;8.798;2023-03-01T06:55:12;-2.50;99.90
31765;DHT22;18338;53.240;8.798;2023-03-01T06:57:39;-2.20;99.90
31765;DHT22;18338;53.240;8.798;2023-03-01T07:00:07;-1.90;99.90
31765;DHT22;18338;53.240;8.798;2023-03-01T07:02:35;-1.70;99.90
31765;DHT22;18338;53.240;8.798;2023-03-01T07:05:03;-1.50;99.90
31765;DHT22;18338;53.240;8.798;2023-03-01T07:07:30;-1.30;99.90
31765;DHT22;18338;53.240;8.798;2023-03-01T07:09:57;-1.10;99.90
31765;DHT22;18338;53.240;8.798;2023-03-01T07:12:24;-0.90;99.90
31765;DHT22;18338;53.240;8.798;2023-03-01T07:14:50;-0.70;99.90
31765;DHT22;18338;53.240;8.798;2023-03-01T07:17:18;-0.60;99.90
31765;DHT22;18338;53.240;8.798;2023-03-01T07:19:45;-0.40;99.90
31765;DHT22;18338;53.240;8.798;2023-03-01T07:22:12;-0.20;99.90
31765;DHT22;18338;53.240;8.798;2023-03-01T07:24:40;-0.10;99.90
31765;DHT22;18338;53.240;8.798;2023-03-01T07:27:07;0.00;99.90
31765;DHT22;18338;53.240;8.798;2023-03-01T07:29:34;0.20;99.90
31765;DHT22;18338;53.240;8.798;2023-03-01T07:32:03;0.30;99.90
31765;DHT22;18338;53.240;8.798;2023-03-01T07:34:31;0.50;99.90
31765;DHT22;18338;53.240;8.798;2023-03-01T07:36:58;0.50;99.90
31765;DHT22;18338;53.240;8.798;2023-03-01T07:39:25;0.60;99.90
31765;DHT22;18338;53.240;8.798;2023-03-01T07:41:52;0.70;99.90
31765;DHT22;18338;53.240;8.798;2023-03-01T07:44:18;0.80;99.90
31765;DHT22;18338;53.240;8.798;2023-03-01T07:46:45;1.00;99.90
31765;DHT22;18338;53.240;8.798;2023-03-01T07:49:12;1.20;99.90
31765;DHT22;18338;53.240;8.798;2023-03-01T07:51:38;1.30;99.90
31765;DHT22;18338;53.240;8.798;2023-03-01T07:54:05;1.30;99.90
31765;DHT22;18338;53.240;8.798;2023-03-01T07:56:32;1.40;99.90
31765;DHT22;18338;53.240;8.798;2023-03-01T07:58:59;1.40;99.90
31765;DHT22;18338;53.240;8.798;2023-03-01T08:01:26;1.50;99.90
31765;DHT22;18338;53.240;8.798;2023-03-01T08:03:53;1.60;99.90
31765;DHT22;18338;53.240;8.798;2023-03-01T08:06:21;1.70;99.90
31765;DHT22;18338;53.240;8.798;2023-03-01T08:08:48;1.90;99.90
31765;DHT22;18338;53.240;8.798;2023-03-01T08:11:15;2.40;99.90
31765;DHT22;18338;53.240;8.798;2023-03-01T08:13:43;2.40;99.90
31765;DHT22;18338;53.240;8.798;2023-03-01T08:16:13;2.60;99.90
31765;DHT22;18338;53.240;8.798;2023-03-01T08:18:40;2.80;99.90
31765;DHT22;18338;53.240;8.798;2023-03-01T08:21:11;2.90;99.90
31765;DHT22;18338;53.240;8.798;2023-03-01T08:23:39;2.70;99.90
31765;DHT22;18338;53.240;8.798;2023-03-01T08:26:17;2.80;99.90
31765;DHT22;18338;53.240;8.798;2023-03-01T08:28:46;2.90;99.90
31765;DHT22;18338;53.240;8.798;2023-03-01T08:31:18;3.10;99.90
31765;DHT22;18338;53.240;8.798;2023-03-01T08:33:48;3.50;99.90
31765;DHT22;18338;53.240;8.798;2023-03-01T08:36:18;3.60;99.90
31765;DHT22;18338;53.240;8.798;2023-03-01T08:38:44;4.00;99.90
31765;DHT22;18338;53.240;8.798;2023-03-01T08:41:12;4.30;99.90
31765;DHT22;18338;53.240;8.798;2023-03-01T08:43:40;4.50;99.90
31765;DHT22;18338;53.240;8.798;2023-03-01T08:46:07;4.50;99.90
31765;DHT22;18338;53.240;8.798;2023-03-01T08:48:34;5.00;99.90
31765;DHT22;18338;53.240;8.798;2023-03-01T08:51:15;5.70;99.90
31765;DHT22;18338;53.240;8.798;2023-03-01T08:53:44;6.40;99.90
31765;DHT22;18338;53.240;8.798;2023-03-01T08:56:11;6.80;99.90
31765;DHT22;18338;53.240;8.798;2023-03-01T08:58:38;7.10;99.90
31765;DHT22;18338;53.240;8.798;2023-03-01T09:01:12;7.20;99.90
31765;DHT22;18338;53.240;8.798;2023-03-01T09:03:47;7.30;99.90
31765;DHT22;18338;53.240;8.798;2023-03-01T09:06:15;7.30;99.90
31765;DHT22;18338;53.240;8.798;2023-03-01T09:08:45;7.70;99.90
31765;DHT22;18338;53.240;8.798;2023-03-01T09:11:18;8.00;99.90
31765;DHT22;18338;53.240;8.798;2023-03-01T09:13:48;7.90;99.90
31765;DHT22;18338;53.240;8.798;2023-03-01T09:16:25;7.50;99.90
31765;DHT22;18338;53.240;8.798;2023-03-01T09:18:55;7.30;99.90
31765;DHT22;18338;53.240;8.798;2023-03-01T09:21:34;7.30;99.90
31765;DHT22;18338;53.240;8.798;2023-03-01T09:24:14;7.20;99.90
31765;DHT22;18338;53.240;8.798;2023-03-01T09:26:44;7.10;99.90
31765;DHT22;18338;53.240;8.798;2023-03-01T09:29:22;7.20;99.90
31765;DHT22;18338;53.240;8.798;2023-03-01T09:31:57;7.30;99.90
31765;DHT22;18338;53.240;8.798;2023-03-01T09:34:28;7.50;99.90
31765;DHT22;18338;53.240;8.798;2023-03-01T09:37:38;7.80;99.90
31765;DHT22;18338;53.240;8.798;2023-03-01T09:43:56;8.50;99.90
31765;DHT22;18338;53.240;8.798;2023-03-01T09:46:43;8.80;99.90
31765;DHT22;18338;53.240;8.798;2023-03-01T09:50:05;8.90;99.90
31765;DHT22;18338;53.240;8.798;2023-03-01T09:53:04;8.70;99.90
31765;DHT22;18338;53.240;8.798;2023-03-01T10:06:26;8.20;99.90
31765;DHT22;18338;53.240;8.798;2023-03-01T10:09:39;10.10;99.90
31765;DHT22;18338;53.240;8.798;2023-03-01T10:12:19;13.60;99.90
31765;DHT22;18338;53.240;8.798;2023-03-01T10:15:14;16.50;95.60
31765;DHT22;18338;53.240;8.798;2023-03-01T10:18:41;18.80;87.80
31765;DHT22;18338;53.240;8.798;2023-03-01T10:35:26;25.60;58.30
31765;DHT22;18338;53.240;8.798;2023-03-01T10:38:06;25.60;56.90
31765;DHT22;18338;53.240;8.798;2023-03-01T10:40:34;26.90;56.00
31765;DHT22;18338;53.240;8.798;2023-03-01T10:43:04;25.90;54.90
31765;DHT22;18338;53.240;8.798;2023-03-01T10:45:38;26.80;53.40
31765;DHT22;18338;53.240;8.798;2023-03-01T10:50:35;27.10;55.30
31765;DHT22;18338;53.240;8.798;2023-03-01T10:53:21;27.20;55.40
31765;DHT22;18338;53.240;8.798;2023-03-01T10:56:09;26.70;55.90
31765;DHT22;18338;53.240;8.798;2023-03-01T10:58:37;25.70;57.60
31765;DHT22;18338;53.240;8.798;2023-03-01T11:01:25;26.20;56.30
31765;DHT22;18338;53.240;8.798;2023-03-01T11:06:37;25.70;56.70
31765;DHT22;18338;53.240;8.798;2023-03-01T11:09:19;24.30;58.40
31765;DHT22;18338;53.240;8.798;2023-03-01T11:11:51;25.10;57.90
31765;DHT22;18338;53.240;8.798;2023-03-01T11:14:38;25.90;58.50
31765;DHT22;18338;53.240;8.798;2023-03-01T11:17:31;26.00;56.60
31765;DHT22;18338;53.240;8.798;2023-03-01T11:22:55;25.30;57.50
31765;DHT22;18338;53.240;8.798;2023-03-01T11:25:32;25.70;58.20
31765;DHT22;18338;53.240;8.798;2023-03-01T11:28:02;26.00;56.30
31765;DHT22;18338;53.240;8.798;2023-03-01T11:31:14;25.90;56.80
31765;DHT22;18338;53.240;8.798;2023-03-01T11:33:44;25.90;57.40
31765;DHT22;18338;53.240;8.798;2023-03-01T11:38:39;27.70;56.40
31765;DHT22;18338;53.240;8.798;2023-03-01T11:41:21;27.90;55.80
31765;DHT22;18338;53.240;8.798;2023-03-01T11:44:23;27.20;55.50
31765;DHT22;18338;53.240;8.798;2023-03-01T11:49:54;27.90;54.60
31765;DHT22;18338;53.240;8.798;2023-03-01T11:52:48;27.50;53.80
31765;DHT22;18338;53.240;8.798;2023-03-01T11:58:27;27.30;54.30
31765;DHT22;18338;53.240;8.798;2023-03-01T12:09:23;25.10;56.70
31765;DHT22;18338;53.240;8.798;2023-03-01T12:28:18;25.70;56.60
31765;DHT22;18338;53.240;8.798;2023-03-01T12:34:14;24.30;57.50
31765;DHT22;18338;53.240;8.798;2023-03-01T12:37:21;24.50;58.20
31765;DHT22;18338;53.240;8.798;2023-03-01T12:40:27;23.50;60.10
31765;DHT22;18338;53.240;8.798;2023-03-01T12:43:50;24.40;58.80
31765;DHT22;18338;53.240;8.798;2023-03-01T12:46:33;24.70;58.00
31765;DHT22;18338;53.240;8.798;2023-03-01T12:49:15;24.60;58.70
31765;DHT22;18338;53.240;8.798;2023-03-01T12:54:51;24.90;57.60
31765;DHT22;18338;53.240;8.798;2023-03-01T13:00:46;25.70;57.00
31765;DHT22;18338;53.240;8.798;2023-03-01T13:03:38;25.90;57.90
31765;DHT22;18338;53.240;8.798;2023-03-01T13:06:19;25.50;57.50
31765;DHT22;18338;53.240;8.798;2023-03-01T13:09:11;25.00;58.70
31765;DHT22;18338;53.240;8.798;2023-03-01T13:11:43;26.40;56.80
31765;DHT22;18338;53.240;8.798;2023-03-01T13:16:51;26.50;56.40
31765;DHT22;18338;53.240;8.798;2023-03-01T13:19:26;27.10;56.40
31765;DHT22;18338;53.240;8.798;2023-03-01T13:21:55;27.30;55.70
31765;DHT22;18338;53.240;8.798;2023-03-01T13:24:43;28.20;55.80
31765;DHT22;18338;53.240;8.798;2023-03-01T13:29:54;24.50;57.40
31765;DHT22;18338;53.240;8.798;2023-03-01T13:32:24;23.80;57.80
31765;DHT22;18338;53.240;8.798;2023-03-01T13:37:41;26.90;58.30
31765;DHT22;18338;53.240;8.798;2023-03-01T13:42:50;27.10;56.00
31765;DHT22;18338;53.240;8.798;2023-03-01T13:45:42;28.20;55.70
31765;DHT22;18338;53.240;8.798;2023-03-01T13:48:16;28.50;55.80
31765;DHT22;18338;53.240;8.798;2023-03-01T13:50:55;28.70;54.10
31765;DHT22;18338;53.240;8.798;2023-03-01T13:53:25;27.80;55.20
31765;DHT22;18338;53.240;8.798;2023-03-01T13:56:16;28.50;54.70
31765;DHT22;18338;53.240;8.798;2023-03-01T14:01:39;26.10;56.30
31765;DHT22;18338;53.240;8.798;2023-03-01T14:04:27;26.30;57.00
31765;DHT22;18338;53.240;8.798;2023-03-01T14:07:16;25.90;58.40
31765;DHT22;18338;53.240;8.798;2023-03-01T14:09:47;26.50;56.80
31765;DHT22;18338;53.240;8.798;2023-03-01T14:15:36;26.80;56.50
31765;DHT22;18338;53.240;8.798;2023-03-01T14:18:15;25.20;57.70
31765;DHT22;18338;53.240;8.798;2023-03-01T14:20:46;26.00;57.40
31765;DHT22;18338;53.240;8.798;2023-03-01T14:23:19;24.80;57.70
31765;DHT22;18338;53.240;8.798;2023-03-01T14:25:52;23.80;60.00
31765;DHT22;18338;53.240;8.798;2023-03-01T14:28:21;23.00;61.20
31765;DHT22;18338;53.240;8.798;2023-03-01T14:30:51;22.40;62.90
31765;DHT22;18338;53.240;8.798;2023-03-01T14:33:22;22.00;65.30
31765;DHT22;18338;53.240;8.798;2023-03-01T14:38:31;22.00;64.90
31765;DHT22;18338;53.240;8.798;2023-03-01T14:41:02;22.60;63.10
31765;DHT22;18338;53.240;8.798;2023-03-01T14:43:32;23.10;62.70
31765;DHT22;18338;53.240;8.798;2023-03-01T14:45:59;22.90;62.60
31765;DHT22;18338;53.240;8.798;2023-03-01T14:48:27;22.90;62.50
31765;DHT22;18338;53.240;8.798;2023-03-01T14:50:55;22.10;64.60
31765;DHT22;18338;53.240;8.798;2023-03-01T14:53:27;22.20;64.50
31765;DHT22;18338;53.240;8.798;2023-03-01T14:56:00;21.70;65.00
31765;DHT22;18338;53.240;8.798;2023-03-01T14:58:32;20.20;66.70
31765;DHT22;18338;53.240;8.798;2023-03-01T15:01:03;19.20;69.90
31765;DHT22;18338;53.240;8.798;2023-03-01T15:03:40;19.10;71.90
31765;DHT22;18338;53.240;8.798;2023-03-01T15:06:08;19.50;70.60
31765;DHT22;18338;53.240;8.798;2023-03-01T15:08:37;19.20;71.20
31765;DHT22;18338;53.240;8.798;2023-03-01T15:13:41;17.80;76.40
31765;DHT22;18338;53.240;8.798;2023-03-01T15:16:12;17.80;76.80
31765;DHT22;18338;53.240;8.798;2023-03-01T15:18:45;17.00;77.70
31765;DHT22;18338;53.240;8.798;2023-03-01T15:21:21;17.10;78.40
31765;DHT22;18338;53.240;8.798;2023-03-01T15:24:05;17.20;79.60
31765;DHT22;18338;53.240;8.798;2023-03-01T15:26:39;17.30;80.40
31765;DHT22;18338;53.240;8.798;2023-03-01T15:29:16;17.20;79.80
31765;DHT22;18338;53.240;8.798;2023-03-01T15:32:00;17.20;81.00
31765;DHT22;18338;53.240;8.798;2023-03-01T15:34:35;17.10;81.00
31765;DHT22;18338;53.240;8.798;2023-03-01T15:37:06;16.80;81.40
31765;DHT22;18338;53.240;8.798;2023-03-01T15:42:08;16.20;83.80
31765;DHT22;18338;53.240;8.798;2023-03-01T15:44:37;16.50;82.30
31765;DHT22;18338;53.240;8.798;2023-03-01T15:47:25;15.70;85.20
31765;DHT22;18338;53.240;8.798;2023-03-01T15:49:54;15.10;87.90
31765;DHT22;18338;53.240;8.798;2023-03-01T15:52:23;15.20;90.10
31765;DHT22;18338;53.240;8.798;2023-03-01T15:55:01;15.40;89.10
31765;DHT22;18338;53.240;8.798;2023-03-01T15:57:29;14.90;90.20
31765;DHT22;18338;53.240;8.798;2023-03-01T15:59:56;14.90;90.10
31765;DHT22;18338;53.240;8.798;2023-03-01T16:02:23;15.00;90.00
31765;DHT22;18338;53.240;8.798;2023-03-01T16:04:50;14.60;90.60
31765;DHT22;18338;53.240;8.798;2023-03-01T16:07:17;13.90;92.00
31765;DHT22;18338;53.240;8.798;2023-03-01T16:09:44;13.40;93.70
31765;DHT22;18338;53.240;8.798;2023-03-01T16:12:14;12.30;96.50
31765;DHT22;18338;53.240;8.798;2023-03-01T16:14:41;11.40;99.10
31765;DHT22;18338;53.240;8.798;2023-03-01T16:17:13;10.50;99.90
31765;DHT22;18338;53.240;8.798;2023-03-01T16:19:42;10.00;99.90
31765;DHT22;18338;53.240;8.798;2023-03-01T16:22:10;9.40;99.90
31765;DHT22;18338;53.240;8.798;2023-03-01T16:24:37;8.80;99.90
31765;DHT22;18338;53.240;8.798;2023-03-01T16:27:03;8.40;99.90
31765;DHT22;18338;53.240;8.798;2023-03-01T16:29:30;8.10;99.90
31765;DHT22;18338;53.240;8.798;2023-03-01T16:32:00;7.80;99.90
31765;DHT22;18338;53.240;8.798;2023-03-01T16:34:28;7.50;99.90
31765;DHT22;18338;53.240;8.798;2023-03-01T16:36:54;7.30;99.90
31765;DHT22;18338;53.240;8.798;2023-03-01T16:39:21;7.10;99.90
31765;DHT22;18338;53.240;8.798;2023-03-01T16:41:47;7.00;99.90
31765;DHT22;18338;53.240;8.798;2023-03-01T16:44:14;6.80;99.90
31765;DHT22;18338;53.240;8.798;2023-03-01T16:46:42;6.60;99.90
31765;DHT22;18338;53.240;8.798;2023-03-01T16:49:09;6.40;99.90
31765;DHT22;18338;53.240;8.798;2023-03-01T16:51:36;6.30;99.90
31765;DHT22;18338;53.240;8.798;2023-03-01T16:54:03;6.10;99.90
31765;DHT22;18338;53.240;8.798;2023-03-01T16:56:30;5.90;99.90
31765;DHT22;18338;53.240;8.798;2023-03-01T16:58:59;5.80;99.90
31765;DHT22;18338;53.240;8.798;2023-03-01T17:01:31;5.60;99.90
31765;DHT22;18338;53.240;8.798;2023-03-01T17:04:04;5.40;99.90
31765;DHT22;18338;53.240;8.798;2023-03-01T17:06:30;5.20;99.90
31765;DHT22;18338;53.240;8.798;2023-03-01T17:08:59;5.10;99.90
31765;DHT22;18338;53.240;8.798;2023-03-01T17:11:25;4.90;99.90
31765;DHT22;18338;53.240;8.798;2023-03-01T17:13:52;4.70;99.90
31765;DHT22;18338;53.240;8.798;2023-03-01T17:16:20;4.60;99.90
31765;DHT22;18338;53.240;8.798;2023-03-01T17:18:47;4.50;99.90
31765;DHT22;18338;53.240;8.798;2023-03-01T17:21:14;4.40;99.90
31765;DHT22;18338;53.240;8.798;2023-03-01T17:23:44;4.40;99.90
31765;DHT22;18338;53.240;8.798;2023-03-01T17:26:11;4.40;99.90
31765;DHT22;18338;53.240;8.798;2023-03-01T17:28:39;4.30;99.90
31765;DHT22;18338;53.240;8.798;2023-03-01T17:31:06;4.20;99.90
31765;DHT22;18338;53.240;8.798;2023-03-01T17:33:33;4.10;99.90
31765;DHT22;18338;53.240;8.798;2023-03-01T17:36:00;4.00;99.90
31765;DHT22;18338;53.240;8.798;2023-03-01T17:38:27;3.90;99.90
31765;DHT22;18338;53.240;8.798;2023-03-01T17:40:54;3.80;99.90
31765;DHT22;18338;53.240;8.798;2023-03-01T17:43:24;3.70;99.90
31765;DHT22;18338;53.240;8.798;2023-03-01T17:45:50;3.80;99.90
31765;DHT22;18338;53.240;8.798;2023-03-01T17:48:18;3.70;99.90
31765;DHT22;18338;53.240;8.798;2023-03-01T17:50:44;3.60;99.90
31765;DHT22;18338;53.240;8.798;2023-03-01T17:53:12;3.50;99.90
31765;DHT22;18338;53.240;8.798;2023-03-01T17:55:40;3.50;99.90
31765;DHT22;18338;53.240;8.798;2023-03-01T17:58:08;3.40;99.90
31765;DHT22;18338;53.240;8.798;2023-03-01T18:00:36;3.30;99.90
31765;DHT22;18338;53.240;8.798;2023-03-01T18:03:03;3.20;99.90
31765;DHT22;18338;53.240;8.798;2023-03-01T18:05:35;3.10;99.90